Time;durP1;ratioP1;P1;durP2;ratioP2;P2;SDS_P1;SDS_P2;PMS_P1;PMS_P2;Temp;Humidity;BMP_temperature;BMP_pressure;BME280_temperature;BME280_humidity;BME280_pressure;Samples;Min_cycle;Max_cycle;Signal;HPM_P1;HPM_P2
2022/01/08 00:01:11;;;;;;;11.10;9.87;;;1.60;99.90;;;;;;5030011;28;20196;-71
2022/01/08 00:03:39;;;;;;;10.63;9.73;;;1.60;99.90;;;;;;5026433;28;20176;-71
2022/01/08 00:06:04;;;;;;;10.57;9.57;;;1.60;99.90;;;;;;5022021;28;20722;-71
2022/01/08 00:08:31;;;;;;;10.57;9.53;;;1.40;99.90;;;;;;5024873;28;20183;-71
2022/01/08 00:10:57;;;;;;;11.17;10.07;;;1.40;99.90;;;;;;5028029;28;20553;-72
2022/01/08 00:13:22;;;;;;;12.10;10.90;;;1.50;99.90;;;;;;5024791;28;20190;-72
2022/01/08 00:15:48;;;;;;;11.37;10.23;;;1.50;99.90;;;;;;5016837;28;20273;-72
2022/01/08 00:18:14;;;;;;;11.93;10.73;;;1.50;99.90;;;;;;5059250;28;20176;-72
2022/01/08 00:20:40;;;;;;;12.20;11.00;;;1.50;99.90;;;;;;5018968;28;20185;-72
2022/01/08 00:23:05;;;;;;;12.43;11.03;;;1.50;99.90;;;;;;5029761;28;20269;-72
2022/01/08 00:25:31;;;;;;;12.33;11.13;;;1.40;99.90;;;;;;5026729;28;20283;-72
2022/01/08 00:27:57;;;;;;;7.27;6.60;;;1.30;99.90;;;;;;5026246;28;20184;-72
2022/01/08 00:30:22;;;;;;;10.70;9.70;;;1.40;99.90;;;;;;5030773;28;20180;-72
2022/01/08 00:32:48;;;;;;;8.67;7.77;;;1.40;99.90;;;;;;5024769;28;20204;-72
2022/01/08 00:35:14;;;;;;;10.80;9.70;;;1.50;99.90;;;;;;5021409;28;20184;-72
2022/01/08 00:37:40;;;;;;;9.17;8.30;;;1.50;99.90;;;;;;5027063;28;20185;-72
2022/01/08 00:40:10;;;;;;;11.43;10.33;;;1.50;99.90;;;;;;5025137;28;20184;-72
2022/01/08 00:42:37;;;;;;;11.50;10.30;;;1.50;99.90;;;;;;5027148;28;20192;-72
2022/01/08 00:45:06;;;;;;;10.63;9.53;;;1.50;99.90;;;;;;5020070;28;20236;-72
2022/01/08 00:47:32;;;;;;;11.20;10.10;;;1.40;99.90;;;;;;5024026;28;20180;-71
2022/01/08 00:49:58;;;;;;;7.50;6.40;;;1.50;99.90;;;;;;5029405;28;20195;-71
2022/01/08 00:52:24;;;;;;;10.33;9.43;;;1.50;99.90;;;;;;5026768;28;20200;-71
2022/01/08 00:54:49;;;;;;;10.17;9.17;;;1.50;99.90;;;;;;5019598;28;20185;-72
2022/01/08 00:57:15;;;;;;;9.73;7.30;;;1.50;99.90;;;;;;5020315;28;20192;-72
2022/01/08 00:59:41;;;;;;;10.20;9.20;;;1.50;99.90;;;;;;5031319;28;20211;-72
2022/01/08 01:02:06;;;;;;;8.00;7.20;;;1.40;99.90;;;;;;5026749;28;20236;-72
2022/01/08 01:04:32;;;;;;;9.03;8.13;;;1.50;99.90;;;;;;5019805;28;20218;-72
2022/01/08 01:06:58;;;;;;;9.97;8.93;;;1.50;99.90;;;;;;5025512;28;20176;-72
2022/01/08 01:09:24;;;;;;;8.20;7.47;;;1.40;99.90;;;;;;5027586;28;20666;-72
2022/01/08 01:11:55;;;;;;;9.07;8.27;;;1.40;99.90;;;;;;5029917;28;20244;-72
2022/01/08 01:14:21;;;;;;;10.17;8.60;;;1.40;99.90;;;;;;5027135;28;20192;-72
2022/01/08 01:16:47;;;;;;;8.83;7.93;;;1.30;99.90;;;;;;5025698;28;20195;-72
2022/01/08 01:19:12;;;;;;;9.07;8.17;;;1.20;99.90;;;;;;5026156;28;20184;-72
2022/01/08 01:21:38;;;;;;;9.43;8.53;;;1.10;99.90;;;;;;5027566;28;20345;-72
2022/01/08 01:24:10;;;;;;;8.63;7.83;;;0.90;99.90;;;;;;5026358;28;20195;-72
2022/01/08 01:26:38;;;;;;;9.27;8.27;;;0.80;99.90;;;;;;5022666;28;20318;-72
2022/01/08 01:30:12;;;;;;;9.50;8.53;;;0.70;99.90;;;;;;5030819;28;20860;-72
2022/01/08 01:48:25;;;;;;;8.67;7.87;;;0.20;99.90;;;;;;5033128;28;20234;-72
2022/01/08 01:50:51;;;;;;;9.33;8.43;;;0.10;99.90;;;;;;5029763;28;20180;-71
2022/01/08 01:53:17;;;;;;;8.77;7.87;;;0.00;99.90;;;;;;5029482;28;20231;-71
2022/01/08 01:55:44;;;;;;;8.47;7.67;;;0.00;99.90;;;;;;5060308;28;20200;-71
2022/01/08 01:58:10;;;;;;;10.10;9.20;;;0.00;99.90;;;;;;5028123;28;20269;-72
2022/01/08 02:00:36;;;;;;;8.10;7.30;;;0.00;99.90;;;;;;5032453;28;20196;-72
2022/01/08 02:03:01;;;;;;;9.23;8.33;;;0.00;99.90;;;;;;5028645;28;20270;-71
2022/01/08 02:05:28;;;;;;;9.57;8.67;;;0.00;99.90;;;;;;5032906;28;20200;-72
2022/01/08 02:07:55;;;;;;;9.37;8.50;;;-0.10;99.90;;;;;;5029486;28;20686;-72
2022/01/08 02:10:24;;;;;;;9.87;8.93;;;-0.10;99.90;;;;;;5029377;28;20200;-72
2022/01/08 02:12:50;;;;;;;11.30;10.10;;;-0.20;99.90;;;;;;5026023;28;20227;-71
2022/01/08 02:15:16;;;;;;;11.83;10.50;;;-0.20;99.90;;;;;;5032018;28;20234;-72
2022/01/08 02:17:41;;;;;;;9.73;8.73;;;-0.30;99.90;;;;;;5032579;28;20185;-72
2022/01/08 02:20:08;;;;;;;10.80;9.70;;;-0.30;99.90;;;;;;5025766;28;20306;-72
2022/01/08 02:22:34;;;;;;;10.60;9.57;;;-0.30;99.90;;;;;;5029783;28;20728;-72
2022/01/08 02:25:00;;;;;;;11.47;10.27;;;-0.30;99.90;;;;;;5027162;28;20212;-72
2022/01/08 02:27:26;;;;;;;12.10;10.90;;;-0.40;99.90;;;;;;5030292;28;20261;-72
2022/01/08 02:29:53;;;;;;;12.60;11.07;;;-0.40;99.90;;;;;;5058825;28;20315;-71
2022/01/08 02:32:26;;;;;;;14.07;12.57;;;-0.50;99.90;;;;;;5029695;28;20258;-72
2022/01/08 02:34:51;;;;;;;16.80;13.33;;;-0.40;99.90;;;;;;5020708;28;20719;-72
2022/01/08 02:37:20;;;;;;;14.10;12.40;;;-0.40;99.90;;;;;;5027741;28;20172;-72
2022/01/08 02:39:48;;;;;;;13.30;11.90;;;-0.50;99.90;;;;;;5022957;28;20621;-73
2022/01/08 02:42:19;;;;;;;13.47;10.87;;;-0.50;99.90;;;;;;5027866;28;20254;-72
2022/01/08 02:44:46;;;;;;;14.00;11.67;;;-0.50;99.90;;;;;;5023176;28;20625;-72
2022/01/08 02:47:17;;;;;;;10.97;9.87;;;-0.50;99.90;;;;;;5027010;28;20230;-72
2022/01/08 02:49:43;;;;;;;14.57;11.03;;;-0.50;99.90;;;;;;5024121;28;20739;-72
2022/01/08 02:52:09;;;;;;;12.90;11.43;;;-0.50;99.90;;;;;;5028777;28;20196;-72
2022/01/08 02:54:35;;;;;;;15.03;12.30;;;-0.50;99.90;;;;;;5023804;28;20655;-72
2022/01/08 02:57:01;;;;;;;18.83;13.20;;;-0.50;99.90;;;;;;5057775;28;20180;-72
2022/01/08 02:59:27;;;;;;;15.77;12.73;;;-0.40;99.90;;;;;;5024552;28;20524;-72
2022/01/08 03:01:53;;;;;;;15.43;12.70;;;-0.40;99.90;;;;;;5022311;28;20205;-72
2022/01/08 03:04:19;;;;;;;15.67;12.77;;;-0.50;99.90;;;;;;5025683;28;20239;-72
2022/01/08 03:06:45;;;;;;;14.53;12.17;;;-0.40;99.90;;;;;;5028325;28;20172;-72
2022/01/08 03:09:11;;;;;;;16.20;13.30;;;-0.40;99.90;;;;;;5028026;28;20546;-75
2022/01/08 03:11:38;;;;;;;14.47;11.70;;;-0.40;99.90;;;;;;5029381;28;20283;-72
2022/01/08 03:14:05;;;;;;;14.73;12.10;;;-0.40;99.90;;;;;;5028081;28;20180;-72
2022/01/08 03:16:30;;;;;;;15.67;12.40;;;-0.40;99.90;;;;;;5025720;28;20191;-72
2022/01/08 03:18:56;;;;;;;18.83;13.53;;;-0.40;99.90;;;;;;5026327;28;20184;-72
2022/01/08 03:21:22;;;;;;;15.47;13.53;;;-0.40;99.90;;;;;;5020832;28;20211;-72
2022/01/08 03:24:00;;;;;;;15.03;12.13;;;-0.50;99.90;;;;;;5031743;28;20192;-72
2022/01/08 03:26:28;;;;;;;14.47;12.20;;;-0.50;99.90;;;;;;5028109;28;20191;-72
2022/01/08 03:28:55;;;;;;;14.43;12.50;;;-0.50;99.90;;;;;;5028276;28;20181;-72
2022/01/08 03:31:23;;;;;;;13.17;11.83;;;-0.50;99.90;;;;;;5019606;28;20323;-72
2022/01/08 03:33:50;;;;;;;13.90;11.87;;;-0.50;99.90;;;;;;5046130;28;20191;-72
2022/01/08 03:36:17;;;;;;;11.57;10.37;;;-0.60;99.90;;;;;;5027522;28;20185;-72
2022/01/08 03:38:43;;;;;;;12.37;11.07;;;-0.60;99.90;;;;;;5029095;28;20195;-72
2022/01/08 03:41:09;;;;;;;11.93;10.70;;;-0.60;99.90;;;;;;5030934;28;20210;-72
2022/01/08 03:43:35;;;;;;;13.20;11.80;;;-0.70;99.90;;;;;;5030497;28;20188;-72
2022/01/08 03:46:03;;;;;;;14.03;11.47;;;-0.70;99.90;;;;;;5027146;28;20763;-72
2022/01/08 03:49:09;;;;;;;14.77;11.90;;;-0.80;99.90;;;;;;5027102;28;20173;-72
2022/01/08 03:51:33;;;;;;;14.60;11.73;;;-0.80;99.90;;;;;;5024575;28;20683;-72
2022/01/08 03:53:58;;;;;;;14.93;12.43;;;-0.90;99.90;;;;;;5025730;28;20177;-72
2022/01/08 03:56:25;;;;;;;15.43;13.23;;;-0.90;99.90;;;;;;5022312;28;20705;-73
2022/01/08 03:58:51;;;;;;;13.97;12.37;;;-1.00;99.90;;;;;;5026543;28;20185;-72
2022/01/08 04:01:17;;;;;;;16.83;12.90;;;-1.00;99.90;;;;;;5026439;28;20238;-72
2022/01/08 04:03:43;;;;;;;14.90;12.33;;;-1.10;99.90;;;;;;5027933;28;20191;-72
2022/01/08 04:06:09;;;;;;;14.57;12.33;;;-1.10;99.90;;;;;;5024263;28;20276;-72
2022/01/08 04:08:35;;;;;;;15.37;11.57;;;-1.10;99.90;;;;;;5025636;28;20184;-72
2022/01/08 04:11:01;;;;;;;14.87;11.53;;;-1.20;99.90;;;;;;5026076;28;20185;-72
2022/01/08 04:13:30;;;;;;;13.47;11.83;;;-1.20;99.90;;;;;;5026473;28;20222;-72
2022/01/08 04:16:01;;;;;;;14.00;12.50;;;-1.20;99.90;;;;;;5022501;28;20215;-72
2022/01/08 04:18:27;;;;;;;13.70;11.70;;;-1.20;99.90;;;;;;5024769;28;20267;-72
2022/01/08 04:23:37;;;;;;;13.50;11.23;;;-1.20;99.90;;;;;;5023257;28;20187;-72
2022/01/08 04:26:03;;;;;;;14.57;12.50;;;-1.20;99.90;;;;;;5022052;28;20296;-72
2022/01/08 04:28:29;;;;;;;13.13;11.73;;;-1.20;99.90;;;;;;5026031;28;20562;-72
2022/01/08 04:30:55;;;;;;;13.70;11.83;;;-1.20;99.90;;;;;;5027729;28;20267;-72
2022/01/08 04:33:20;;;;;;;12.70;11.40;;;-1.20;99.90;;;;;;5029960;28;20284;-73
2022/01/08 04:35:46;;;;;;;13.23;11.20;;;-1.20;99.90;;;;;;5028007;28;20635;-73
2022/01/08 04:38:12;;;;;;;14.10;11.30;;;-1.10;99.90;;;;;;5027828;28;20185;-72
2022/01/08 04:40:39;;;;;;;12.73;11.30;;;-1.10;99.90;;;;;;5027226;28;20219;-75
2022/01/08 04:43:04;;;;;;;13.80;11.60;;;-1.10;99.90;;;;;;5028937;28;20224;-74
2022/01/08 04:45:31;;;;;;;12.77;11.13;;;-1.10;99.90;;;;;;5029925;28;20208;-75
2022/01/08 04:48:01;;;;;;;13.20;11.80;;;-1.00;99.90;;;;;;5028219;28;20255;-75
2022/01/08 04:50:28;;;;;;;14.07;10.93;;;-1.00;99.90;;;;;;5024900;28;20181;-75
2022/01/08 04:52:54;;;;;;;14.63;12.30;;;-0.90;99.90;;;;;;5023848;28;20196;-73
2022/01/08 04:55:19;;;;;;;13.13;11.80;;;-0.90;99.90;;;;;;5016098;28;20284;-73
2022/01/08 04:57:46;;;;;;;13.47;11.80;;;-0.80;99.90;;;;;;5023467;28;20748;-74
2022/01/08 05:00:13;;;;;;;13.70;11.40;;;-0.80;99.90;;;;;;5021475;28;20217;-74
2022/01/08 05:02:38;;;;;;;14.87;12.60;;;-0.70;99.90;;;;;;5026316;28;20298;-74
2022/01/08 05:05:05;;;;;;;14.20;12.73;;;-0.70;99.90;;;;;;5022734;28;20267;-74
2022/01/08 05:07:30;;;;;;;13.90;12.13;;;-0.70;99.90;;;;;;5023241;28;20183;-75
2022/01/08 05:09:56;;;;;;;14.93;13.00;;;-0.70;99.90;;;;;;5019463;28;20183;-74
2022/01/08 05:12:22;;;;;;;15.00;12.83;;;-0.60;99.90;;;;;;5018053;28;20206;-75
2022/01/08 05:14:48;;;;;;;16.17;13.17;;;-0.50;99.90;;;;;;5024221;28;20177;-74
2022/01/08 05:17:14;;;;;;;16.57;14.37;;;-0.60;99.90;;;;;;5022792;28;20718;-75
2022/01/08 05:22:07;;;;;;;15.63;12.93;;;-0.60;99.90;;;;;;5020043;28;20204;-72
2022/01/08 05:24:33;;;;;;;16.23;12.93;;;-0.60;99.90;;;;;;5030194;28;20718;-72
2022/01/08 05:26:59;;;;;;;15.60;12.70;;;-0.60;99.90;;;;;;5025771;28;20578;-72
2022/01/08 05:29:25;;;;;;;16.30;14.10;;;-0.50;99.90;;;;;;5030978;28;20184;-72
2022/01/08 05:31:52;;;;;;;16.30;13.30;;;-0.40;99.90;;;;;;5024862;28;20608;-72
2022/01/08 05:34:17;;;;;;;15.57;13.27;;;-0.40;99.90;;;;;;5029100;28;20186;-72
2022/01/08 05:36:43;;;;;;;15.23;13.00;;;-0.30;99.90;;;;;;5027037;28;20631;-73
2022/01/08 05:39:08;;;;;;;20.00;14.10;;;-0.30;99.90;;;;;;5025408;28;20590;-72
2022/01/08 05:41:34;;;;;;;15.23;12.90;;;-0.30;99.90;;;;;;5026553;28;20239;-73
2022/01/08 05:44:00;;;;;;;14.80;12.97;;;-0.30;99.90;;;;;;5029784;28;20189;-72
2022/01/08 05:46:25;;;;;;;20.60;16.13;;;-0.30;99.90;;;;;;5030372;28;20239;-72
2022/01/08 05:48:51;;;;;;;18.67;14.30;;;-0.20;99.90;;;;;;5022012;28;20713;-72
2022/01/08 05:51:16;;;;;;;19.40;15.37;;;-0.20;99.90;;;;;;5022369;28;20716;-73
2022/01/08 05:53:42;;;;;;;18.07;14.60;;;-0.20;99.90;;;;;;5023789;28;20179;-73
2022/01/08 05:56:08;;;;;;;17.17;14.23;;;-0.20;99.90;;;;;;5027520;28;20177;-72
2022/01/08 05:58:34;;;;;;;16.83;13.73;;;-0.20;99.90;;;;;;5022565;28;20181;-72
2022/01/08 06:01:00;;;;;;;20.23;15.03;;;-0.20;99.90;;;;;;5021288;28;20208;-72
2022/01/08 06:03:26;;;;;;;16.50;13.87;;;-0.20;99.90;;;;;;5027976;28;20722;-72
2022/01/08 06:05:52;;;;;;;15.50;13.07;;;-0.30;99.90;;;;;;5021460;28;20275;-72
2022/01/08 06:08:18;;;;;;;18.07;14.10;;;-0.30;99.90;;;;;;5026905;28;20207;-72
2022/01/08 06:10:43;;;;;;;15.13;13.17;;;-0.40;99.90;;;;;;5021767;28;20209;-75
2022/01/08 06:13:09;;;;;;;18.53;15.63;;;-0.40;99.90;;;;;;5026886;28;20205;-72
2022/01/08 06:15:34;;;;;;;17.80;14.33;;;-0.50;99.90;;;;;;5022910;28;20212;-72
2022/01/08 06:18:00;;;;;;;18.07;13.70;;;-0.50;99.90;;;;;;5022576;28;20620;-72
2022/01/08 06:20:26;;;;;;;18.80;13.57;;;-0.40;99.90;;;;;;5025221;28;20188;-72
2022/01/08 06:22:51;;;;;;;18.43;12.90;;;-0.40;99.90;;;;;;5021969;28;20213;-72
2022/01/08 06:25:17;;;;;;;18.70;15.43;;;-0.50;99.90;;;;;;5025501;28;20204;-72
2022/01/08 06:27:42;;;;;;;17.13;13.53;;;-0.40;99.90;;;;;;5023350;28;20177;-72
2022/01/08 06:30:09;;;;;;;15.30;13.23;;;-0.40;99.90;;;;;;5022116;28;20245;-72
2022/01/08 06:32:34;;;;;;;16.03;13.50;;;-0.40;99.90;;;;;;5021594;28;20201;-72
2022/01/08 06:35:01;;;;;;;14.40;11.50;;;-0.40;99.90;;;;;;5029676;28;20181;-71
2022/01/08 06:37:26;;;;;;;14.70;13.07;;;-0.30;99.90;;;;;;5030765;28;20179;-72
2022/01/08 06:39:52;;;;;;;14.57;12.40;;;-0.40;99.90;;;;;;5030151;28;20311;-73
2022/01/08 06:42:18;;;;;;;12.97;11.27;;;-0.40;99.90;;;;;;5027081;28;20679;-72
2022/01/08 06:44:43;;;;;;;11.97;10.77;;;-0.50;99.90;;;;;;5026121;28;20205;-72
2022/01/08 06:47:09;;;;;;;12.17;10.97;;;-0.50;99.90;;;;;;5022509;28;20185;-72
2022/01/08 06:49:35;;;;;;;10.20;8.97;;;-0.40;99.90;;;;;;5026555;28;20188;-73
2022/01/08 06:52:00;;;;;;;10.87;9.87;;;-0.30;99.90;;;;;;5024821;28;20675;-72
2022/01/08 06:54:26;;;;;;;10.37;9.33;;;-0.30;99.90;;;;;;5031032;28;20382;-73
2022/01/08 06:56:52;;;;;;;10.37;9.33;;;-0.30;99.90;;;;;;5024705;28;20208;-72
2022/01/08 06:59:17;;;;;;;10.97;9.87;;;-0.20;99.90;;;;;;5031593;28;20274;-72
2022/01/08 07:01:43;;;;;;;10.23;9.23;;;-0.20;99.90;;;;;;5026456;28;20205;-72
2022/01/08 07:04:08;;;;;;;11.00;9.93;;;-0.10;99.90;;;;;;5025127;28;20547;-72
2022/01/08 07:06:34;;;;;;;10.57;9.47;;;-0.10;99.90;;;;;;5022891;28;20225;-72
2022/01/08 07:08:59;;;;;;;10.00;9.00;;;-0.10;99.90;;;;;;5021467;28;20200;-72
2022/01/08 07:11:25;;;;;;;11.17;9.97;;;-0.10;99.90;;;;;;5020427;28;20205;-72
2022/01/08 07:13:51;;;;;;;11.77;9.23;;;-0.10;99.90;;;;;;5020610;28;20184;-72
2022/01/08 07:16:16;;;;;;;10.50;9.27;;;-0.10;99.90;;;;;;5019851;28;20251;-72
2022/01/08 07:18:42;;;;;;;10.77;9.73;;;-0.10;99.90;;;;;;5020756;28;20247;-72
2022/01/08 07:21:07;;;;;;;11.47;10.23;;;-0.10;99.90;;;;;;5028985;28;20209;-72
2022/01/08 07:23:33;;;;;;;10.07;9.07;;;-0.10;99.90;;;;;;5018948;28;20279;-72
2022/01/08 07:25:59;;;;;;;9.97;8.97;;;-0.10;99.90;;;;;;5019754;28;20296;-72
2022/01/08 07:28:24;;;;;;;12.77;10.10;;;0.00;99.90;;;;;;5016668;28;20173;-72
2022/01/08 07:30:50;;;;;;;12.53;10.70;;;0.00;99.90;;;;;;5022367;28;20551;-72
2022/01/08 07:33:16;;;;;;;11.23;10.13;;;-0.10;99.90;;;;;;5023459;28;20572;-71
2022/01/08 07:35:41;;;;;;;11.13;10.03;;;-0.10;99.90;;;;;;5021822;28;20180;-72
2022/01/08 07:38:07;;;;;;;10.57;9.43;;;-0.20;99.90;;;;;;5031188;28;20192;-72
2022/01/08 07:40:33;;;;;;;12.13;10.37;;;-0.20;99.90;;;;;;5026864;28;20612;-72
2022/01/08 07:42:58;;;;;;;10.97;9.87;;;-0.20;99.90;;;;;;5021736;28;20211;-72
2022/01/08 07:45:24;;;;;;;10.30;9.30;;;-0.10;99.90;;;;;;5024503;28;20232;-72
2022/01/08 07:47:50;;;;;;;10.00;8.97;;;0.00;99.90;;;;;;5022772;28;20181;-73
2022/01/08 07:50:16;;;;;;;9.43;8.17;;;0.10;99.90;;;;;;5035807;28;20458;-71
2022/01/08 07:52:43;;;;;;;9.13;8.23;;;0.20;99.90;;;;;;5026679;28;20793;-71
2022/01/08 07:55:09;;;;;;;8.80;7.90;;;0.20;99.90;;;;;;5024107;28;20196;-72
2022/01/08 07:57:35;;;;;;;10.03;8.40;;;0.20;99.90;;;;;;5019752;28;20177;-72
2022/01/08 08:00:01;;;;;;;8.77;7.97;;;0.20;99.90;;;;;;5026328;28;20200;-72
2022/01/08 08:02:27;;;;;;;9.00;8.10;;;0.20;99.90;;;;;;5022159;28;20238;-72
2022/01/08 08:04:52;;;;;;;9.57;8.67;;;0.30;99.90;;;;;;5025246;28;20300;-71
2022/01/08 08:07:37;;;;;;;9.00;8.10;;;0.30;99.90;;;;;;5026627;28;20263;-73
2022/01/08 08:10:12;;;;;;;9.40;8.40;;;0.20;99.90;;;;;;5025682;28;20188;-71
2022/01/08 08:12:38;;;;;;;9.73;8.73;;;0.30;99.90;;;;;;5021845;28;20202;-72
2022/01/08 08:15:06;;;;;;;10.00;8.07;;;0.30;99.90;;;;;;5023034;28;20751;-72
2022/01/08 08:17:33;;;;;;;8.60;7.70;;;0.20;99.90;;;;;;5022835;28;20181;-72
2022/01/08 08:19:59;;;;;;;9.20;8.30;;;0.20;99.90;;;;;;5027391;28;20180;-73
2022/01/08 08:22:24;;;;;;;8.10;7.40;;;0.20;99.90;;;;;;5025696;28;20725;-73
2022/01/08 08:24:50;;;;;;;10.00;8.87;;;0.20;99.90;;;;;;5024660;28;20201;-74
2022/01/08 08:27:16;;;;;;;7.97;7.27;;;0.20;99.90;;;;;;5023279;28;20184;-72
2022/01/08 08:29:42;;;;;;;8.40;7.60;;;0.30;99.90;;;;;;5019425;28;20196;-72
2022/01/08 08:32:08;;;;;;;8.70;7.90;;;0.30;99.90;;;;;;5024887;28;20280;-71
2022/01/08 08:34:34;;;;;;;8.60;7.80;;;0.50;99.90;;;;;;5021251;28;20189;-72
2022/01/08 08:37:00;;;;;;;8.80;7.90;;;0.50;99.90;;;;;;5027522;28;21457;-73
2022/01/08 08:39:25;;;;;;;8.10;6.97;;;0.50;99.90;;;;;;5029421;28;20179;-72
2022/01/08 08:41:52;;;;;;;7.37;6.63;;;0.50;99.90;;;;;;5025821;28;20204;-73
2022/01/08 08:44:17;;;;;;;8.23;7.23;;;0.50;99.90;;;;;;5024780;28;20663;-71
2022/01/08 08:46:43;;;;;;;8.00;7.30;;;0.50;99.90;;;;;;5020215;28;20177;-72
2022/01/08 08:49:09;;;;;;;8.47;7.53;;;0.60;99.90;;;;;;5024779;28;20224;-72
2022/01/08 08:51:35;;;;;;;8.67;7.77;;;0.60;99.90;;;;;;5033778;28;20544;-72
2022/01/08 08:54:01;;;;;;;8.43;7.63;;;0.60;99.90;;;;;;5027710;28;20184;-72
2022/01/08 08:56:29;;;;;;;9.07;7.63;;;0.60;99.90;;;;;;5031023;28;20189;-72
2022/01/08 08:58:54;;;;;;;8.10;7.30;;;0.60;99.90;;;;;;5029557;28;20213;-72
2022/01/08 09:01:20;;;;;;;8.10;7.03;;;0.70;99.90;;;;;;5026343;28;20242;-72
2022/01/08 09:03:45;;;;;;;9.17;6.70;;;0.80;99.90;;;;;;5023016;28;20188;-72
2022/01/08 09:06:11;;;;;;;7.57;6.87;;;0.70;99.90;;;;;;5024981;28;20244;-72
2022/01/08 09:08:37;;;;;;;6.90;6.30;;;0.80;99.90;;;;;;5027725;28;20197;-72
2022/01/08 09:11:02;;;;;;;7.20;6.30;;;0.80;99.90;;;;;;5025069;28;20215;-72
2022/01/08 09:13:28;;;;;;;7.00;6.40;;;0.90;99.90;;;;;;5026902;28;20176;-73
2022/01/08 09:15:54;;;;;;;6.20;5.60;;;1.00;99.90;;;;;;5022810;28;20183;-73
2022/01/08 09:18:20;;;;;;;6.07;5.53;;;1.10;99.90;;;;;;5023562;28;20406;-73
2022/01/08 09:20:46;;;;;;;5.87;5.37;;;1.10;99.90;;;;;;5019979;28;20193;-73
2022/01/08 09:23:13;;;;;;;8.10;6.40;;;1.10;99.90;;;;;;5027517;28;20201;-73
2022/01/08 09:25:38;;;;;;;6.30;5.70;;;1.10;99.90;;;;;;5027003;28;20327;-73
2022/01/08 09:28:04;;;;;;;7.13;6.10;;;1.10;99.90;;;;;;5036262;28;20264;-75
2022/01/08 09:30:30;;;;;;;7.10;6.40;;;1.10;99.90;;;;;;5034687;28;20180;-72
2022/01/08 09:32:56;;;;;;;6.67;6.03;;;1.20;99.90;;;;;;5030539;28;20208;-73
2022/01/08 09:35:23;;;;;;;8.67;6.23;;;1.10;99.90;;;;;;5027994;28;20225;-73
2022/01/08 09:37:49;;;;;;;7.33;6.40;;;1.00;99.90;;;;;;5023777;28;20628;-72
2022/01/08 09:40:18;;;;;;;7.93;6.93;;;1.10;99.90;;;;;;5031938;28;20319;-76
2022/01/08 09:42:44;;;;;;;7.80;7.10;;;1.10;99.90;;;;;;5032907;28;20201;-74
2022/01/08 09:45:11;;;;;;;7.70;6.90;;;1.10;99.90;;;;;;5037956;28;20215;-74
2022/01/08 09:47:37;;;;;;;7.60;6.77;;;1.30;99.90;;;;;;5028583;28;20656;-74
2022/01/08 09:50:04;;;;;;;8.50;7.63;;;1.40;99.90;;;;;;5060893;28;20181;-73
2022/01/08 09:52:31;;;;;;;8.10;7.30;;;1.40;99.90;;;;;;5027159;28;20639;-73
2022/01/08 09:54:57;;;;;;;9.50;7.97;;;1.50;99.90;;;;;;5025803;28;20185;-73
2022/01/08 09:57:23;;;;;;;9.03;8.20;;;1.40;99.90;;;;;;5027858;28;20187;-73
2022/01/08 09:59:49;;;;;;;7.20;6.50;;;1.40;99.90;;;;;;5028978;28;20201;-73
2022/01/08 10:02:20;;;;;;;7.57;6.90;;;1.40;99.90;;;;;;5029522;28;20223;-72
2022/01/08 10:04:46;;;;;;;8.57;7.67;;;1.50;99.90;;;;;;5022151;28;20198;-70
2022/01/08 10:07:16;;;;;;;4.27;3.73;;;1.60;99.90;;;;;;5023766;28;20645;-71
2022/01/08 10:10:13;;;;;;;3.93;3.00;;;1.70;99.90;;;;;;5031277;28;20173;-74
2022/01/08 10:12:53;;;;;;;3.50;3.07;;;1.80;99.90;;;;;;5025030;28;20193;-74
2022/01/08 10:18:38;;;;;;;3.03;2.73;;;2.10;99.90;;;;;;5032221;28;20187;-73
2022/01/08 10:21:26;;;;;;;2.87;2.63;;;2.10;99.90;;;;;;5032788;28;20656;-74
2022/01/08 10:23:52;;;;;;;3.90;2.47;;;2.10;99.90;;;;;;5015353;28;20364;-75
2022/01/08 10:26:20;;;;;;;5.80;2.80;;;2.00;99.90;;;;;;5026379;28;20192;-72
2022/01/08 10:28:51;;;;;;;2.83;2.60;;;2.10;99.90;;;;;;5022870;28;20189;-75
2022/01/08 10:31:21;;;;;;;2.23;2.13;;;2.10;99.90;;;;;;5025637;28;20585;-72
2022/01/08 10:33:49;;;;;;;3.40;2.63;;;2.10;99.90;;;;;;5022959;28;20213;-73
2022/01/08 10:36:25;;;;;;;3.53;2.50;;;2.20;99.90;;;;;;5029357;28;20186;-74
2022/01/08 10:38:53;;;;;;;3.00;2.80;;;2.20;99.90;;;;;;5022224;28;20187;-74
2022/01/08 10:41:20;;;;;;;2.90;2.47;;;2.20;99.90;;;;;;5020143;28;20180;-74
2022/01/08 10:43:46;;;;;;;2.60;2.40;;;2.20;99.90;;;;;;5021175;28;20177;-75
2022/01/08 10:46:19;;;;;;;3.33;2.33;;;2.10;99.90;;;;;;5020259;28;20611;-74
2022/01/08 10:48:50;;;;;;;2.77;2.30;;;2.10;99.90;;;;;;5022668;28;20173;-74
2022/01/08 10:51:24;;;;;;;2.60;2.40;;;2.00;99.90;;;;;;5022254;28;20188;-73
2022/01/08 10:54:11;;;;;;;3.57;1.60;;;2.00;99.90;;;;;;5024338;28;20168;-73
2022/01/08 10:56:39;;;;;;;1.63;1.53;;;2.00;99.90;;;;;;5025654;28;20187;-73
2022/01/08 10:59:26;;;;;;;1.27;1.27;;;1.90;99.90;;;;;;5028804;28;20189;-73
2022/01/08 11:01:54;;;;;;;1.17;1.17;;;1.90;99.90;;;;;;5027319;28;20216;-73
2022/01/08 11:04:34;;;;;;;1.30;1.30;;;1.90;99.90;;;;;;5024862;28;20199;-75
2022/01/08 11:07:17;;;;;;;1.20;1.20;;;1.90;99.90;;;;;;5027145;28;20188;-76
2022/01/08 11:09:44;;;;;;;1.00;1.00;;;1.90;99.90;;;;;;5024657;28;20177;-77
2022/01/08 11:12:28;;;;;;;1.37;1.37;;;1.90;99.90;;;;;;5027679;28;20196;-77
2022/01/08 11:17:37;;;;;;;1.30;1.30;;;1.80;99.90;;;;;;5028031;28;20745;-76
2022/01/08 11:20:06;;;;;;;1.23;1.23;;;1.80;99.90;;;;;;5031425;28;20271;-77
2022/01/08 11:22:34;;;;;;;1.43;1.43;;;1.80;99.90;;;;;;5021446;28;20270;-76
2022/01/08 11:25:06;;;;;;;1.60;1.50;;;1.90;99.90;;;;;;5026466;28;20211;-76
2022/01/08 11:27:43;;;;;;;1.47;1.43;;;1.80;99.90;;;;;;5023806;28;20196;-77
2022/01/08 11:30:15;;;;;;;1.67;1.57;;;1.90;99.90;;;;;;5031952;28;20200;-75
2022/01/08 11:32:42;;;;;;;1.60;1.50;;;1.90;99.90;;;;;;5015526;28;20206;-75
2022/01/08 11:35:10;;;;;;;2.20;1.30;;;2.00;99.90;;;;;;5025954;28;20200;-75
2022/01/08 11:37:36;;;;;;;1.57;1.47;;;2.00;99.90;;;;;;5050057;28;20195;-76
2022/01/08 11:40:07;;;;;;;1.40;1.40;;;2.00;99.90;;;;;;5026036;28;20758;-75
2022/01/08 11:42:35;;;;;;;2.97;1.63;;;2.00;99.90;;;;;;5022469;28;20205;-75
2022/01/08 11:45:04;;;;;;;1.70;1.60;;;2.10;99.90;;;;;;5027821;28;20219;-75
2022/01/08 11:47:30;;;;;;;1.57;1.53;;;2.10;99.90;;;;;;5027637;28;20177;-74
2022/01/08 11:49:58;;;;;;;1.60;1.50;;;1.90;99.90;;;;;;5025925;28;20180;-74
2022/01/08 11:52:24;;;;;;;1.13;1.10;;;1.90;99.90;;;;;;5023456;28;20200;-74
2022/01/08 11:54:52;;;;;;;1.67;1.60;;;1.90;99.90;;;;;;5022787;28;20371;-74
2022/01/08 11:57:26;;;;;;;3.40;1.67;;;1.90;99.90;;;;;;5025622;28;20204;-74
2022/01/08 11:59:58;;;;;;;1.33;1.33;;;1.80;99.90;;;;;;5021072;28;20672;-74
2022/01/08 12:02:43;;;;;;;1.37;1.37;;;1.80;99.90;;;;;;5028399;28;20284;-74
2022/01/08 12:05:14;;;;;;;1.80;1.60;;;1.80;99.90;;;;;;5025545;28;20192;-75
2022/01/08 12:07:45;;;;;;;1.73;1.60;;;1.80;99.90;;;;;;5025725;28;20176;-73
2022/01/08 12:10:18;;;;;;;1.90;1.80;;;1.80;99.90;;;;;;5026946;28;20199;-71
2022/01/08 12:12:44;;;;;;;2.13;1.90;;;1.90;99.90;;;;;;5029537;28;20625;-74
2022/01/08 12:15:10;;;;;;;1.73;1.73;;;1.90;99.90;;;;;;5024376;28;20267;-75
2022/01/08 12:17:56;;;;;;;2.60;1.80;;;1.90;99.90;;;;;;5025590;28;20327;-74
2022/01/08 12:20:41;;;;;;;1.77;1.70;;;1.80;99.90;;;;;;5021637;28;20187;-74
2022/01/08 12:23:28;;;;;;;2.10;2.00;;;1.70;99.90;;;;;;5024957;28;20209;-74
2022/01/08 12:25:55;;;;;;;2.40;2.30;;;1.60;99.90;;;;;;5032365;28;20693;-75
2022/01/08 12:28:39;;;;;;;3.53;2.40;;;1.50;99.90;;;;;;5018394;28;20659;-76
2022/01/08 12:31:52;;;;;;;2.93;2.70;;;1.50;99.90;;;;;;5025840;28;20548;-76
2022/01/08 12:34:19;;;;;;;2.80;2.60;;;1.50;99.90;;;;;;5031343;28;20175;-74
2022/01/08 12:37:03;;;;;;;4.17;2.83;;;1.50;99.90;;;;;;5026180;28;20211;-73
2022/01/08 12:39:44;;;;;;;3.27;3.07;;;1.60;99.90;;;;;;5021952;28;20267;-74
2022/01/08 12:42:27;;;;;;;4.77;3.40;;;1.80;99.90;;;;;;5053922;28;20260;-75
2022/01/08 12:44:59;;;;;;;2.80;2.60;;;1.80;99.90;;;;;;5026399;28;20569;-73
2022/01/08 12:47:42;;;;;;;2.70;2.60;;;1.90;99.90;;;;;;5026887;28;20177;-74
2022/01/08 12:50:21;;;;;;;3.60;3.30;;;1.80;99.90;;;;;;5028155;28;20181;-73
2022/01/08 12:53:05;;;;;;;3.27;2.97;;;1.80;99.90;;;;;;5027893;28;20672;-72
2022/01/08 12:55:31;;;;;;;4.47;2.33;;;1.90;99.90;;;;;;5022755;28;20216;-74
2022/01/08 12:57:57;;;;;;;5.57;2.63;;;2.00;99.90;;;;;;5027969;28;20239;-75
2022/01/08 13:00:23;;;;;;;3.90;3.30;;;2.00;99.90;;;;;;5024765;28;20196;-76
2022/01/08 13:02:49;;;;;;;4.17;3.87;;;2.00;99.90;;;;;;5023922;28;20216;-74
2022/01/08 13:05:15;;;;;;;3.50;3.30;;;2.00;99.90;;;;;;5028479;28;20607;-73
2022/01/08 13:07:51;;;;;;;4.37;3.53;;;2.00;99.90;;;;;;5026393;28;20928;-74
2022/01/08 13:10:18;;;;;;;3.33;3.13;;;2.00;99.90;;;;;;5023002;28;20176;-75
2022/01/08 13:13:04;;;;;;;3.33;3.10;;;2.10;99.90;;;;;;5023375;28;20197;-73
2022/01/08 13:15:31;;;;;;;2.73;2.50;;;2.30;99.90;;;;;;5027971;28;20192;-73